logo
App data

The Guild Gold Edition

It’s the year 1400- the late Middle Ages. Europe sees the dawn of the golden age of the new departures and the free spirit. Under the rule of the bourgeoisie and businessmen, more and more towns are emerging from the clutches of the aristocracy and are achieving independence, power and wealth.
Store | Hub | SteamDB
Developer: 4HEAD Studios Publisher: THQ Nordic
Genre: Simulation, Strategy
Languages: English, German
Tags: Strategy (38), Simulation (38), Economy (19), Medieval (17), Management (7)
Category: Single-player, Multi-player
Release date: Nov 18, 2002
Price: $2.49 75%
Old userscore: 71% Metascore: 82%
Owners: 100,000 .. 200,000
Followers: 1,249
Peak concurrent players yesterday: 43
Playtime total: 06:41 (average) 09:57 (median)

Steam Spy is still in beta, so expect major bugs.

Owners data:

Access restricted.

This feature is only available to users with special access rights. Sorry.

If you want to proceed, you need to register or log in first and then back Steam Spy on Patreon. Look for Indie or Pro pledge.

Don't forget to use the same email as on Steam Spy!

Audience in 2 weeks:

Access restricted.

This feature is only available to users with special access rights. Sorry.

If you want to proceed, you need to register or log in first and then back Steam Spy on Patreon. Look for Indie or Pro pledge.

Don't forget to use the same email as on Steam Spy!

Peak daily concurrent players:

CCU data courtesy of SteamDB. Used with permission.

Hourly concurrent players:

Followers over time

Access restricted.

This feature is only available to users with special access rights. Sorry.

If you want to proceed, you need to register or log in first and then back Steam Spy on Patreon. Look for Indie or Pro pledge.

Don't forget to use the same email as on Steam Spy!

Views for top 50 videos on YouTube for this game:

Games similar to this one:

# Game Release date
Price
Score rank
(Userscore / Metascore)
Owners
Players
Playtime (Median)
1 TableTop Soccer Apr 22, 2016 $0.99N/A (N/A)0 .. 20,0000%00:00 (00:00)
2 Cthulhu Realms Jul 1, 2016 N/AN/A (N/A)50,000 .. 100,0000%00:00 (00:00)
3 Quarantine Feb 9, 2017 $9.99N/A (N/A)20,000 .. 50,0000%00:00 (00:00)
4 Blight of the Immortals Oct 25, 2016 FreeN/A (N/A)20,000 .. 50,0000%00:00 (00:00)
5 ROD: Revolt Of Defense Aug 12, 2016 $0.99N/A (N/A)20,000 .. 50,0000%00:00 (00:00)
6 Honey Rose: Underdog Fighter Extraordinaire Sep 29, 2016 FreeN/A (N/A)0 .. 20,0000%00:00 (00:00)
7 Cosmic Trip May 24, 2017 $19.99N/A (N/A)20,000 .. 50,0000%00:00 (00:00)
8 Lazerbait Oct 14, 2016 FreeN/A (N/A)20,000 .. 50,00033.33%00:02 (00:01)
9 Legends of Callasia Jun 10, 2016 $14.99N/A (N/A)50,000 .. 100,0000%00:00 (00:00)
10 Microgons Mar 27, 2017 FreeN/A (N/A)20,000 .. 50,0000%00:00 (00:00)
11 Crown and Council Jan 27, 2017 FreeN/A (N/A)100,000 .. 200,0000%00:00 (00:00)
12 Desperados 2: Cooper's Revenge Mar 12, 2008 $9.99N/A (N/A/66%)20,000 .. 50,0000%00:00 (00:00)
13 Grand Ages: Rome Mar 20, 2009 $9.99N/A (N/A/72%)200,000 .. 500,0000%00:00 (00:00)
14 Space Trader: Merchant Marine Oct 23, 2008 $4.99N/A (N/A)100,000 .. 200,0000%00:00 (00:00)
15 Supreme Ruler 2020 Gold Jul 9, 2009 $9.99N/A (N/A/65%)20,000 .. 50,0000%00:00 (00:00)
16 BC Kings Jun 16, 2009 $0.99N/A (N/A)20,000 .. 50,0000%00:00 (00:00)
17 Patrician III Nov 18, 2010 $4.99N/A (N/A/75%)100,000 .. 200,0000%00:00 (00:00)
18 Port Royale 2 Jun 16, 2009 $4.99N/A (N/A/75%)50,000 .. 100,0000%00:00 (00:00)
19 XIII Century – Gold Edition Aug 28, 2009 $4.99N/A (N/A)50,000 .. 100,0000%00:00 (00:00)
20 9th Company: Roots Of Terror Dec 3, 2009 $9.99N/A (N/A)20,000 .. 50,0000%00:00 (00:00)
21 Dwarfs!? May 4, 2011 $9.99N/A (N/A)200,000 .. 500,0000%00:00 (00:00)
22 Heroes of Might & Magic V: Hammers of Fate Oct 10, 2008 $9.99N/A (N/A/66%)50,000 .. 100,0000%00:00 (00:00)
23 Warhammer 40,000: Dawn of War – Winter Assault Aug 7, 2007 $3.24N/A (N/A)500,000 .. 1,000,0000%00:00 (00:00)
24 Red Faction II Aug 6, 2009 $9.99N/A (N/A/64%)200,000 .. 500,0000%00:00 (00:00)
25 Company of Heroes: Opposing Fronts Sep 24, 2007 $19.99N/A (N/A/87%)2,000,000 .. 5,000,0000%00:00 (00:00)
26 Imperium Romanum Gold Edition Nov 25, 2008 $9.99N/A (N/A/63%)100,000 .. 200,0000%00:00 (00:00)
27 Supreme Commander Sep 28, 2011 $12.99N/A (N/A/86%)1,000,000 .. 2,000,0000%00:00 (00:00)
28 Europa Universalis: Rome - Gold Edition Dec 18, 2008 $9.99N/A (N/A/79%)50,000 .. 100,0000%00:00 (00:00)
29 Age of Wonders Oct 2010 $5.99N/A (N/A)100,000 .. 200,0000%00:00 (00:00)
30 Demolition Inc. Sep 19, 2011 $5.99N/A (N/A)50,000 .. 100,0000%00:00 (00:00)
31 Age of Wonders II: The Wizard's Throne Oct 2010 $9.99N/A (N/A/86%)50,000 .. 100,00010%00:02 (00:00)
32 Cossacks II: Napoleonic Wars Apr 26, 2005 $4.99N/A (N/A/73%)50,000 .. 100,0000%00:00 (00:00)
33 Swords and Soldiers HD Dec 2, 2010 $9.99N/A (N/A)200,000 .. 500,0000%00:00 (00:00)
34 American Conquest Aug 26, 2011 $4.99N/A (N/A/76%)50,000 .. 100,0000%00:00 (00:00)
35 Fantasy Wars Aug 6, 2010 $4.99N/A (N/A/67%)50,000 .. 100,0000%00:00 (00:00)
36 American Conquest: Fight Back Aug 26, 2011 $4.99N/A (N/A/66%)100,000 .. 200,0000%00:00 (00:00)
37 Theatre of War 3: Korea Mar 24, 2011 $6.99N/A (N/A/49%)50,000 .. 100,0000%00:00 (00:00)
38 Dungeons - The Dark Lord Sep 27, 2011 $19.99N/A (N/A/72%)100,000 .. 200,0000%00:00 (00:00)
39 Archon Classic Nov 2, 2010 $9.99N/A (N/A)20,000 .. 50,0000%00:00 (00:00)
40 Sacraboar Nov 6, 2009 $2.99N/A (N/A)20,000 .. 50,0000%00:00 (00:00)
41 Fate of the World Feb 28, 2011 $9.99N/A (N/A/70%)50,000 .. 100,0000%00:00 (00:00)
42 Robin Hood: The Legend of Sherwood Aug 26, 2011 $1.19N/A (N/A/80%)100,000 .. 200,0000%00:00 (00:00)
43 Guardians of Graxia Nov 1, 2010 N/AN/A (N/A)50,000 .. 100,0000%00:00 (00:00)
44 Dungeons Feb 10, 2011 $9.99N/A (N/A/65%)200,000 .. 500,0000%00:00 (00:00)
45 Hydrophobia: Prophecy May 9, 2011 $4.99N/A (N/A/64%)200,000 .. 500,0000%00:00 (00:00)
46 Cubemen Mar 16, 2012 $3.99N/A (N/A/74%)100,000 .. 200,0000%00:00 (00:00)
47 UFO: Afterlight Jan 6, 2014 $6.99N/A (N/A/71%)200,000 .. 500,0000%00:00 (00:00)
48 Arena Wars 2 Oct 12, 2012 $3.99N/A (N/A)20,000 .. 50,0000%00:00 (00:00)
49 Skyward Collapse May 23, 2013 $4.99N/A (N/A/64%)100,000 .. 200,0000%00:00 (00:00)
50 Viking: Battle for Asgard Oct 17, 2012 $14.99N/A (N/A)1,000,000 .. 2,000,0000%00:00 (00:00)
51 Ancient Space Sep 23, 2014 $19.99N/A (N/A)50,000 .. 100,0000%00:00 (00:00)
52 Conflict Desert Storm Sep 13, 2002 $6.99N/A (N/A/56%)50,000 .. 100,0000%00:00 (00:00)
53 Earth 2140 Nov 15, 2013 $4.99N/A (N/A)200,000 .. 500,0007.23%07:46 (06:16)
54 Conquest of Elysium 3 Oct 24, 2012 $9.99N/A (N/A)50,000 .. 100,0000%00:00 (00:00)
55 Ground Control Anthology May 31, 2000 $4.99N/A (N/A/86%)20,000 .. 50,0000%00:00 (00:00)
56 Galactic Civilizations I: Ultimate Edition Aug 14, 2012 $9.99N/A (N/A/83%)100,000 .. 200,0000%00:00 (00:00)
57 Disciples III - Resurrection Oct 11, 2011 $14.99N/A (N/A/63%)100,000 .. 200,0000%00:00 (00:00)
58 Tiny Troopers Aug 24, 2012 $4.99N/A (N/A/57%)100,000 .. 200,0000%00:00 (00:00)
59 Men of War: Condemned Heroes Apr 12, 2012 $7.99N/A (N/A/57%)100,000 .. 200,0000%00:00 (00:00)
60 Sang-Froid - Tales of Werewolves Apr 5, 2013 FreeN/A (N/A/79%)200,000 .. 500,0003.23%00:33 (00:11)
61 Crusader Kings Complete Feb 14, 2012 $9.99N/A (N/A/73%)100,000 .. 200,0000%00:00 (00:00)
62 Eador: Genesis Oct 14, 2013 $5.99N/A (N/A)50,000 .. 100,0000%00:00 (00:00)
63 Desperados: Wanted Dead or Alive Nov 20, 2013 $4.99N/A (N/A/78%)100,000 .. 200,0000%00:00 (00:00)
64 Rooks Keep Dec 5, 2014 $7.99N/A (N/A)0 .. 20,0000%00:00 (00:00)
65 Praetorians Mar 10, 2003 $4.99N/A (N/A/78%)100,000 .. 200,0000%00:00 (00:00)
66 Rush for Glory Jun 16, 2014 $14.99N/A (N/A)20,000 .. 50,0000%00:00 (00:00)
67 US and THEM Mar 8, 2010 $2.99N/A (N/A)20,000 .. 50,0000%00:00 (00:00)
68 Civil War II Sep 17, 2013 $39.99N/A (N/A)20,000 .. 50,0000%00:00 (00:00)
69 Battle Academy Aug 4, 2010 $14.99N/A (N/A)20,000 .. 50,0000%00:00 (00:00)
70 War in a Box: Paper Tanks Jul 4, 2014 $4.99N/A (N/A)20,000 .. 50,0000%00:00 (00:00)
71 Perimeter May 21, 2004 $3.99N/A (N/A/77%)20,000 .. 50,0000%00:00 (00:00)
72 The Nightmare Cooperative Jul 16, 2014 $4.99N/A (N/A)50,000 .. 100,0000%00:00 (00:00)
73 UFO: Aftershock Oct 21, 2005 $3.99N/A (N/A)50,000 .. 100,0000%00:00 (00:00)
74 Ground Control II: Operation Exodus Jun 18, 2004 $4.99N/A (N/A/80%)20,000 .. 50,0000%00:00 (00:00)
75 Evolution RTS Apr 4, 2014 N/AN/A (N/A)100,000 .. 200,0000%00:00 (00:00)
76 Silent Storm Gold Edition Oct 2, 2013 $9.99N/A (N/A/83%)200,000 .. 500,0000%00:00 (00:00)
77 Haegemonia: The Solon Heritage May 1, 2014 $0.99N/A (N/A)20,000 .. 50,0000%00:00 (00:00)
78 Void Destroyer Jan 20, 2015 $9.99N/A (N/A)50,000 .. 100,0000%00:00 (00:00)
79 Brigade E5: New Jagged Union Oct 17, 2006 $0.79N/A (N/A/41%)0 .. 20,0000%00:00 (00:00)
80 Commandos: Beyond the Call of Duty Mar 15, 2007 $4.99N/A (N/A)500,000 .. 1,000,0000%00:00 (00:00)
81 ThreadSpace: Hyperbol Jul 12, 2007 $4.99N/A (N/A)0 .. 20,0000%00:00 (00:00)
82 Battlestations: Midway Mar 15, 2007 $6.99N/A (N/A/76%)200,000 .. 500,0000%00:00 (00:00)
83 Men of War: Red Tide Nov 1, 2009 $4.99N/A (N/A/77%)200,000 .. 500,0000%00:00 (00:00)
84 Two Worlds II Castle Defense Jun 14, 2011 $9.99N/A (N/A)100,000 .. 200,0002.44%00:01 (00:00)
85 Civilization IV: Warlords Jul 24, 2006 $4.99N/A (N/A/84%)1,000,000 .. 2,000,0000%00:00 (00:00)
86 X-COM: Apocalypse Sep 4, 2008 $4.99N/A (N/A)500,000 .. 1,000,0000%00:00 (00:00)
87 Full Spectrum Warrior: Ten Hammers Jul 17, 2007 $9.99N/A (N/A/70%)100,000 .. 200,0000%00:00 (00:00)
88 X-COM: Interceptor Sep 4, 2008 $4.99N/A (N/A)50,000 .. 100,0000%00:00 (00:00)
89 Rome: Total War - Alexander Aug 28, 2007 $12.99N/A (N/A/79%)500,000 .. 1,000,0000%00:00 (00:00)
90 X-COM: Enforcer Sep 4, 2008 $4.99N/A (N/A/65%)100,000 .. 200,0000%00:00 (00:00)
91 Cossacks: Art of War Aug 26, 2011 $4.99N/A (N/A)20,000 .. 50,0000%00:00 (00:00)
92 Darwinia Jul 14, 2005 $9.99N/A (N/A/84%)500,000 .. 1,000,0000%00:00 (00:00)
93 Cossacks: European Wars Aug 26, 2011 $4.99N/A (N/A/74%)100,000 .. 200,0000%00:00 (00:00)
94 Space Empires IV Deluxe Feb 7, 2006 $9.99N/A (N/A/79%)50,000 .. 100,0000%00:00 (00:00)
95 Cossacks II: Battle for Europe Aug 26, 2011 $4.99N/A (N/A/69%)100,000 .. 200,0000%00:00 (00:00)
96 Disciples II: Rise of the Elves Jul 6, 2006 $6.99N/A (N/A/80%)50,000 .. 100,00025%00:02 (00:00)
97 Reprisal Universe Sep 15, 2014 $6.99N/A (N/A)20,000 .. 50,0000%00:00 (00:00)
98 UFHO2 Apr 1, 2014 FreeN/A (N/A)20,000 .. 50,0000%00:00 (00:00)
99 Magnifico Dec 2, 2014 $4.99N/A (N/A)0 .. 20,0000%00:00 (00:00)
100 World War I Jun 17, 2005 $4.99N/A (N/A)20,000 .. 50,0000%00:00 (00:00)
101 Gods vs Humans Sep 5, 2013 $4.99N/A (N/A)20,000 .. 50,0000%00:00 (00:00)
102 Wyrmsun May 22, 2015 FreeN/A (N/A)20,000 .. 50,0000%00:00 (00:00)
103 Arms Dealer Mar 26, 2015 N/AN/A (N/A)0 .. 20,0000%00:00 (00:00)
104 The Seven Years War (1756-1763) Oct 30, 2015 $19.99N/A (N/A)20,000 .. 50,0000%00:00 (00:00)
105 Across the Rhine Jul 1, 1995 $6.99N/A (N/A)0 .. 20,0000%00:00 (00:00)
106 Master of Orion 3 Feb 25, 2003 $9.99N/A (N/A/64%)50,000 .. 100,0000%00:00 (00:00)
107 Neocolonialism Nov 25, 2014 $2.99N/A (N/A)0 .. 20,0000%00:00 (00:00)
108 Khet 2.0 Oct 1, 2014 $9.99N/A (N/A)50,000 .. 100,0000%00:00 (00:00)
109 Seven Kingdoms 2 HD Feb 4, 2015 $9.99N/A (N/A)50,000 .. 100,0000%00:00 (00:00)
110 Tiestru Aug 20, 2014 $9.99N/A (N/A)0 .. 20,0000%00:00 (00:00)
111 Crystal Rift Mar 30, 2016 $9.99N/A (N/A)0 .. 20,0000%00:00 (00:00)
112 Hunters Of The Dead Sep 4, 2014 $4.99N/A (N/A)0 .. 20,0000%00:00 (00:00)
113 SHOGUN: Total War - Collection Jun 13, 2000 $9.99N/A (N/A)50,000 .. 100,0000%00:00 (00:00)

Tags over time:

Access restricted.

This feature is only available to users with special access rights. Sorry.

If you want to proceed, you need to register or log in first and then back Steam Spy on Patreon. Look for Indie or Pro pledge.

Don't forget to use the same email as on Steam Spy!

Owners of this game also own:

Access restricted.

This feature is only available to users with special access rights. Sorry.

If you want to proceed, you need to register or log in first and then back Steam Spy on Patreon. Look for Indie or Pro pledge.

Don't forget to use the same email as on Steam Spy!

Playtime distribution:

Access restricted.

This feature is only available to users with special access rights. Sorry.

If you want to proceed, you need to register or log in first and then back Steam Spy on Patreon. Look for Indie or Pro pledge.

Don't forget to use the same email as on Steam Spy!

Playtime (2 weeks):

Access restricted.

This feature is only available to users with special access rights. Sorry.

If you want to proceed, you need to register or log in first and then back Steam Spy on Patreon. Look for Indie or Pro pledge.

Don't forget to use the same email as on Steam Spy!

User reviews:

Login required.

Please register or log in to see this information.